Погода Аполлонияна 2 недели

Фиери, Албания

16 - 28 июля
  • 16июля
    Сегодня
    +22°
    +40°
    Ясно и безоблачно
    ВремяПогодаТемператураВлажностьДавлениеВетер, м/сВероятность осадков
    02:00Ясно и безоблачно+25°C88 %757 мм1.5 м/с2 %
    05:00Ясно и безоблачно+24°C90 %757 мм0.2 м/с2 %
    08:00Ясно и безоблачно+26°C69 %758 мм0.9 м/с2 %
    11:00Ясно и безоблачно+35°C39 %757 мм1.2 м/с2 %
    14:00Ясно и безоблачно+39°C37 %757 мм3.5 м/с2 %
    17:00Ясно и безоблачно+38°C37 %756 мм3.0 м/с2 %
    20:00Ясно и безоблачно+33°C67 %757 мм2.0 м/с2 %
    23:00Ясно и безоблачно+28°C81 %757 мм1.6 м/с2 %
  • 17июля
    Среда
    +22°
    +41°
    Практически безоблачно
    ВремяПогодаТемператураВлажностьДавлениеВетер, м/сВероятность осадков
    02:00Ясно и безоблачно+26°C82 %757 мм0.3 м/с2 %
    05:00Ясно и безоблачно+23°C82 %757 мм0.7 м/с2 %
    08:00Ясно и безоблачно+26°C65 %758 мм0.5 м/с2 %
    11:00Ясно и безоблачно+36°C36 %758 мм1.5 м/с2 %
    14:00Практически безоблачно+40°C33 %758 мм1.9 м/с7 %
    17:00Ясно и безоблачно+38°C42 %757 мм3.3 м/с5 %
    20:00Ясно и безоблачно+33°C65 %758 мм1.3 м/с2 %
    23:00Ясно и безоблачно+28°C82 %759 мм0.4 м/с2 %
  • 18июля
    Четверг
    +24°
    +43°
    Небольшая облачность, возможен дождь с грозой
    ВремяПогодаТемператураВлажностьДавлениеВетер, м/сВероятность осадков
    02:00Ясно и безоблачно+26°C86 %758 мм0.5 м/с2 %
    05:00Ясно и безоблачно+23°C87 %758 мм0.6 м/с2 %
    08:00Ясно и безоблачно+26°C64 %759 мм0.5 м/с2 %
    11:00Ясно и безоблачно+36°C38 %759 мм1.1 м/с2 %
    14:00Небольшая облачность, возможен дождь с грозой+41°C31 %759 мм1.3 м/с16 %
    17:00Ясно и безоблачно+40°C28 %758 мм2.1 м/с5 %
    20:00Ясно и безоблачно+34°C56 %759 мм2.6 м/с2 %
    23:00Ясно и безоблачно+29°C69 %759 мм0.6 м/с2 %
  • 19июля
    Пятница
    +24°
    +42°
    Практически безоблачно
    ВремяПогодаТемператураВлажностьДавлениеВетер, м/сВероятность осадков
    02:00Ясно и безоблачно+27°C73 %758 мм0.3 м/с2 %
    05:00Ясно и безоблачно+25°C71 %758 мм1.6 м/с2 %
    08:00Ясно и безоблачно+27°C49 %758 мм0.7 м/с2 %
    11:00Ясно и безоблачно+38°C27 %758 мм2.1 м/с2 %
    14:00Практически безоблачно+41°C29 %758 мм5.0 м/с3 %
    17:00Ясно и безоблачно+38°C39 %757 мм4.9 м/с3 %
    20:00Ясно и безоблачно+34°C60 %758 мм2.1 м/с2 %
    23:00Ясно и безоблачно+29°C73 %758 мм1.4 м/с2 %
Мы используем cookies
Соглашаюсь